createdAt,value
2022-08-30T00:01:06.784Z,71.53
2022-08-30T00:03:43.628Z,71.37
2022-08-30T00:06:17.922Z,71.19
2022-08-30T00:08:51.043Z,71.49
2022-08-30T00:11:25.143Z,71.47
2022-08-30T00:13:59.945Z,71.51
2022-08-30T00:16:32.138Z,71.63
2022-08-30T00:19:04.160Z,71.58
2022-08-30T00:21:35.981Z,71.84
2022-08-30T00:24:08.976Z,71.57
2022-08-30T00:26:40.838Z,71.74
2022-08-30T00:29:12.764Z,71.75
2022-08-30T00:31:44.681Z,71.68
2022-08-30T00:34:18.699Z,71.84
2022-08-30T00:36:50.801Z,71.65
2022-08-30T00:39:22.681Z,71.81
2022-08-30T00:41:54.633Z,71.57
2022-08-30T00:44:27.497Z,71.64
2022-08-30T00:46:59.412Z,71.65
2022-08-30T00:49:32.150Z,71.74
2022-08-30T00:52:05.282Z,71.81
2022-08-30T00:54:41.402Z,71.82
2022-08-30T00:57:15.677Z,71.99
2022-08-30T00:59:49.554Z,71.94
2022-08-30T01:02:23.861Z,72.05
2022-08-30T01:04:58.386Z,71.94
2022-08-30T01:07:30.261Z,71.98
2022-08-30T01:10:02.420Z,72.26
2022-08-30T01:12:34.609Z,71.90
2022-08-30T01:15:15.379Z,72.01
2022-08-30T01:17:49.982Z,72.25
2022-08-30T01:20:35.932Z,72.08
2022-08-30T01:23:17.118Z,72.05
2022-08-30T01:25:51.214Z,72.25
2022-08-30T01:28:25.976Z,72.13
2022-08-30T01:31:01.246Z,72.12
2022-08-30T01:33:33.531Z,72.05
2022-08-30T01:36:10.901Z,72.08
2022-08-30T01:38:47.532Z,71.96
2022-08-30T01:41:26.127Z,72.12
2022-08-30T01:44:00.034Z,71.84
2022-08-30T01:46:36.203Z,71.97
2022-08-30T01:49:11.409Z,71.96
2022-08-30T01:51:46.817Z,72.12
2022-08-30T01:54:18.678Z,72.06
2022-08-30T01:56:51.427Z,72.31
2022-08-30T01:59:23.223Z,72.70
2022-08-30T02:01:56.943Z,72.64
2022-08-30T02:04:28.802Z,72.86
2022-08-30T02:07:01.542Z,72.76
2022-08-30T02:09:33.558Z,72.71
2022-08-30T02:12:10.744Z,72.69
2022-08-30T02:14:42.757Z,72.76
2022-08-30T02:17:16.466Z,72.45
2022-08-30T02:19:48.584Z,72.27
2022-08-30T02:22:24.365Z,72.26
2022-08-30T02:24:56.172Z,72.34
2022-08-30T02:27:28.453Z,72.25
2022-08-30T02:30:00.286Z,72.18
2022-08-30T02:32:34.740Z,72.28
2022-08-30T02:35:09.070Z,72.27
2022-08-30T02:37:41.210Z,72.23
2022-08-30T02:40:16.257Z,72.19
2022-08-30T02:42:49.779Z,72.14
2022-08-30T02:45:21.827Z,72.08
2022-08-30T02:47:53.898Z,72.07
2022-08-30T02:50:25.865Z,72.02
2022-08-30T02:52:58.907Z,71.86
2022-08-30T02:55:30.986Z,71.93
2022-08-30T02:58:03.002Z,71.87
2022-08-30T03:00:35.070Z,72.02
2022-08-30T03:03:09.305Z,72.03
2022-08-30T03:05:41.365Z,71.83
2022-08-30T03:08:15.029Z,71.83
2022-08-30T03:10:47.087Z,71.83
2022-08-30T03:13:20.559Z,71.96
2022-08-30T03:15:52.885Z,71.71
2022-08-30T03:18:25.556Z,71.87
2022-08-30T03:20:57.994Z,71.83
2022-08-30T03:23:31.126Z,72.10
2022-08-30T03:26:03.038Z,72.15
2022-08-30T03:28:35.555Z,72.04
2022-08-30T03:31:07.759Z,72.14
2022-08-30T03:33:42.259Z,72.22
2022-08-30T03:36:14.537Z,72.30
2022-08-30T03:38:46.461Z,72.31
2022-08-30T03:41:18.411Z,72.42
2022-08-30T03:43:51.077Z,72.52
2022-08-30T03:46:23.194Z,72.61
2022-08-30T03:49:00.514Z,72.67
2022-08-30T03:51:33.264Z,72.66
2022-08-30T03:54:06.084Z,72.81
2022-08-30T03:56:37.834Z,72.99
2022-08-30T03:59:09.710Z,72.99
2022-08-30T04:01:42.160Z,72.97
2022-08-30T04:04:18.752Z,73.05
2022-08-30T04:06:52.983Z,73.09
2022-08-30T04:09:25.319Z,73.14
2022-08-30T04:11:57.271Z,73.09
2022-08-30T04:14:29.416Z,73.14
2022-08-30T04:17:01.449Z,73.29
2022-08-30T04:19:33.483Z,73.47
2022-08-30T04:22:06.213Z,73.37
2022-08-30T04:24:39.352Z,73.45
2022-08-30T04:27:11.877Z,73.38
2022-08-30T04:29:44.817Z,73.57
2022-08-30T04:32:17.231Z,73.64
2022-08-30T04:34:49.097Z,73.65
2022-08-30T04:37:21.825Z,73.68
2022-08-30T04:39:57.101Z,73.51
2022-08-30T04:42:31.684Z,73.61
2022-08-30T04:45:06.034Z,73.38
2022-08-30T04:47:39.251Z,73.49
2022-08-30T04:50:20.811Z,73.33
2022-08-30T04:52:52.632Z,73.34
2022-08-30T04:55:25.634Z,73.25
2022-08-30T04:57:57.730Z,73.26
2022-08-30T05:00:32.841Z,73.32
2022-08-30T05:03:06.596Z,73.34
2022-08-30T05:05:42.166Z,73.24
2022-08-30T05:08:24.351Z,73.21
2022-08-30T05:10:59.106Z,73.23
2022-08-30T05:13:35.564Z,73.06
2022-08-30T05:16:10.668Z,73.00
2022-08-30T05:18:42.569Z,73.14
2022-08-30T05:21:18.371Z,73.23
2022-08-30T05:24:02.365Z,72.99
2022-08-30T05:26:36.219Z,73.15
2022-08-30T05:29:08.440Z,72.98
2022-08-30T05:31:42.110Z,72.95
2022-08-30T05:34:14.086Z,73.10
2022-08-30T05:36:46.250Z,72.81
2022-08-30T05:39:18.117Z,72.50
2022-08-30T05:41:53.792Z,72.21
2022-08-30T05:44:34.260Z,71.81
2022-08-30T05:47:06.434Z,71.04
2022-08-30T05:49:38.339Z,71.18
2022-08-30T05:52:11.108Z,70.54
2022-08-30T05:54:43.060Z,69.97
2022-08-30T05:57:16.531Z,70.00
2022-08-30T05:59:48.931Z,70.03
2022-08-30T06:02:20.951Z,70.38
2022-08-30T06:04:53.891Z,70.47
2022-08-30T06:07:27.054Z,69.97
2022-08-30T06:09:59.252Z,69.83
2022-08-30T06:12:32.358Z,69.00
2022-08-30T06:15:05.652Z,67.94
2022-08-30T06:17:40.220Z,68.51
2022-08-30T06:20:18.863Z,68.65
2022-08-30T06:22:51.472Z,67.94
2022-08-30T06:25:23.685Z,67.52
2022-08-30T06:27:56.677Z,68.10
2022-08-30T06:30:28.762Z,67.02
2022-08-30T06:33:01.172Z,67.48
2022-08-30T06:35:38.152Z,67.49
2022-08-30T06:38:14.201Z,67.28
2022-08-30T06:40:46.177Z,67.45
2022-08-30T06:43:19.169Z,67.33
2022-08-30T06:46:10.461Z,67.14
2022-08-30T06:48:58.577Z,66.43
2022-08-30T06:51:34.954Z,66.65
2022-08-30T06:54:10.888Z,67.29
2022-08-30T06:56:58.123Z,66.47
2022-08-30T07:04:01.227Z,67.01
2022-08-30T07:06:34.167Z,66.97
2022-08-30T07:09:06.502Z,66.76
2022-08-30T07:11:40.685Z,66.18
2022-08-30T07:14:12.513Z,65.93
2022-08-30T07:16:44.902Z,65.84
2022-08-30T07:19:21.079Z,64.35
2022-08-30T07:21:54.362Z,64.73
2022-08-30T07:24:26.390Z,63.67
2022-08-30T07:26:58.272Z,63.24
2022-08-30T07:29:30.215Z,63.70
2022-08-30T07:32:02.911Z,62.73
2022-08-30T07:34:34.873Z,61.69
2022-08-30T07:37:06.741Z,61.86
2022-08-30T07:39:41.761Z,61.76
2022-08-30T07:42:19.129Z,61.91
2022-08-30T07:44:53.663Z,62.20
2022-08-30T07:47:28.757Z,60.75
2022-08-30T07:50:02.118Z,60.64
2022-08-30T07:52:34.421Z,61.08
2022-08-30T07:55:07.685Z,61.46
2022-08-30T07:57:39.689Z,60.12
2022-08-30T08:00:13.385Z,59.82
2022-08-30T08:02:46.499Z,58.45
2022-08-30T08:05:21.985Z,59.48
2022-08-30T08:07:56.260Z,59.77
2022-08-30T08:10:28.123Z,60.13
2022-08-30T08:13:01.006Z,60.10
2022-08-30T08:15:33.111Z,59.46
2022-08-30T08:18:05.095Z,58.41
2022-08-30T08:20:37.539Z,59.24
2022-08-30T08:23:10.572Z,57.77
2022-08-30T08:25:43.604Z,56.55
2022-08-30T08:28:16.014Z,56.32
2022-08-30T08:30:48.532Z,56.56
2022-08-30T08:33:20.962Z,56.97
2022-08-30T08:35:52.891Z,57.67
2022-08-30T08:38:24.803Z,56.53
2022-08-30T08:41:05.189Z,56.47
2022-08-30T08:43:39.781Z,56.71
2022-08-30T08:46:22.872Z,56.49
2022-08-30T08:49:00.528Z,56.77
2022-08-30T08:51:53.471Z,56.46
2022-08-30T08:54:32.257Z,56.28
2022-08-30T08:57:04.641Z,56.28
2022-08-30T08:59:36.480Z,56.48
2022-08-30T09:02:27.803Z,55.52
2022-08-30T09:05:03.690Z,55.11
2022-08-30T09:07:41.677Z,55.51
2022-08-30T09:10:22.996Z,55.64
2022-08-30T09:13:02.821Z,54.80
2022-08-30T09:15:37.034Z,54.13
2022-08-30T09:18:19.092Z,54.10
2022-08-30T09:20:55.013Z,53.97
2022-08-30T09:23:32.342Z,53.39
2022-08-30T09:26:06.612Z,53.57
2022-08-30T09:28:49.586Z,53.09
2022-08-30T09:31:28.482Z,53.56
2022-08-30T09:34:05.363Z,52.01
2022-08-30T09:36:41.977Z,52.12
2022-08-30T09:39:20.770Z,52.97
2022-08-30T09:41:57.285Z,53.33
2022-08-30T09:44:38.142Z,52.30
2022-08-30T09:47:26.028Z,51.40
2022-08-30T09:50:09.935Z,51.93
2022-08-30T09:52:55.606Z,50.74
2022-08-30T09:55:55.899Z,51.16
2022-08-30T09:58:43.024Z,51.07
2022-08-30T10:01:22.827Z,51.45
2022-08-30T10:04:02.640Z,51.06
2022-08-30T10:06:39.790Z,50.51
2022-08-30T10:09:27.882Z,52.26
2022-08-30T10:12:12.346Z,51.84
2022-08-30T10:15:03.955Z,50.97
2022-08-30T10:17:48.794Z,50.13
2022-08-30T10:20:32.884Z,49.05
2022-08-30T10:23:10.541Z,49.71
2022-08-30T10:25:46.847Z,49.00
2022-08-30T10:28:29.026Z,50.06
2022-08-30T10:31:05.040Z,49.18
2022-08-30T10:33:43.498Z,49.44
2022-08-30T10:36:19.047Z,49.35
2022-08-30T10:38:54.804Z,48.26
2022-08-30T10:41:37.339Z,47.16
2022-08-30T10:44:14.735Z,47.61
2022-08-30T10:47:00.621Z,48.24
2022-08-30T10:49:40.428Z,46.99
2022-08-30T10:52:25.586Z,48.72
2022-08-30T10:55:02.881Z,47.75
2022-08-30T10:57:36.759Z,47.82
2022-08-30T11:00:14.690Z,48.28
2022-08-30T11:03:26.640Z,48.95
2022-08-30T11:06:22.941Z,48.37
2022-08-30T11:09:26.668Z,47.29
2022-08-30T11:12:17.136Z,48.38
2022-08-30T11:14:50.527Z,48.18
2022-08-30T11:17:32.510Z,49.02
2022-08-30T11:20:24.165Z,48.47
2022-08-30T11:23:25.842Z,48.67
2022-08-30T11:26:01.974Z,47.35
2022-08-30T11:29:08.751Z,48.42
2022-08-30T11:31:44.625Z,48.21
2022-08-30T11:34:54.377Z,47.52
2022-08-30T11:37:43.301Z,47.63
2022-08-30T11:40:49.494Z,47.68
2022-08-30T11:43:53.144Z,47.95
2022-08-30T11:46:39.504Z,46.55
2022-08-30T11:52:37.131Z,46.30
2022-08-30T11:55:38.844Z,47.07
2022-08-30T11:58:26.062Z,45.49
2022-08-30T12:01:49.686Z,45.90
2022-08-30T12:04:44.628Z,46.10
2022-08-30T12:07:53.550Z,46.82
2022-08-30T12:10:37.683Z,47.71
2022-08-30T12:13:10.781Z,47.71
2022-08-30T12:15:59.560Z,48.62
2022-08-30T12:18:40.794Z,49.33
2022-08-30T12:21:31.237Z,49.67
2022-08-30T12:24:24.625Z,49.98
2022-08-30T12:26:58.401Z,50.36
2022-08-30T12:29:32.484Z,50.52
2022-08-30T12:32:17.688Z,50.75
2022-08-30T12:34:55.163Z,50.72
2022-08-30T12:37:29.669Z,50.00
2022-08-30T12:40:10.201Z,49.26
2022-08-30T12:42:50.184Z,49.42
2022-08-30T12:45:27.100Z,49.35
2022-08-30T12:48:01.833Z,49.08
2022-08-30T12:50:37.765Z,48.84
2022-08-30T12:53:14.071Z,49.15
2022-08-30T12:55:58.063Z,49.18
2022-08-30T12:58:43.619Z,48.84
2022-08-30T13:01:27.218Z,48.47
2022-08-30T13:04:03.677Z,48.58
2022-08-30T13:06:45.049Z,48.60
2022-08-30T13:09:32.644Z,48.56
2022-08-30T13:12:07.241Z,48.97
2022-08-30T13:14:43.641Z,48.79
2022-08-30T13:17:25.801Z,48.67
2022-08-30T13:20:15.163Z,48.31
2022-08-30T13:23:06.501Z,47.54
2022-08-30T13:25:40.245Z,47.31
2022-08-30T13:28:12.400Z,46.95
2022-08-30T13:30:46.825Z,46.79
2022-08-30T13:33:19.218Z,47.02
2022-08-30T13:35:51.122Z,47.40
2022-08-30T13:38:23.065Z,47.50
2022-08-30T13:40:56.517Z,47.15
2022-08-30T13:43:28.804Z,46.40
2022-08-30T13:46:23.230Z,46.49
2022-08-30T13:49:01.364Z,44.36
2022-08-30T13:51:34.916Z,44.81
2022-08-30T13:54:07.259Z,45.45
2022-08-30T13:56:39.204Z,45.73
2022-08-30T13:59:11.037Z,45.45
2022-08-30T14:04:35.865Z,46.25
2022-08-30T14:07:14.059Z,46.50
2022-08-30T14:09:47.356Z,46.50
2022-08-30T14:12:52.391Z,46.73
2022-08-30T14:15:12.941Z,46.58
2022-08-30T14:17:45.033Z,47.22
2022-08-30T14:20:18.201Z,47.31
2022-08-30T14:22:50.058Z,47.23
2022-08-30T14:25:22.408Z,47.47
2022-08-30T14:27:54.279Z,47.90
2022-08-30T14:30:27.039Z,47.71
2022-08-30T14:32:59.015Z,48.23
2022-08-30T14:35:31.144Z,48.58
2022-08-30T14:38:03.714Z,49.06
2022-08-30T14:40:35.678Z,49.23
2022-08-30T14:43:08.762Z,49.19
2022-08-30T14:45:41.755Z,48.78
2022-08-30T14:48:15.414Z,48.54
2022-08-30T14:50:47.373Z,48.02
2022-08-30T14:53:19.305Z,48.19
2022-08-30T14:55:51.116Z,47.99
2022-08-30T14:58:22.993Z,47.74
2022-08-30T15:00:55.406Z,48.00
2022-08-30T15:03:27.708Z,48.20
2022-08-30T15:05:59.549Z,48.49
2022-08-30T15:08:31.530Z,48.79
2022-08-30T15:11:07.717Z,48.38
2022-08-30T15:13:40.427Z,48.23
2022-08-30T15:16:18.099Z,48.38
2022-08-30T15:18:51.143Z,48.51
2022-08-30T15:21:28.473Z,48.32
2022-08-30T15:24:01.511Z,47.46
2022-08-30T15:26:33.399Z,47.02
2022-08-30T15:29:05.261Z,46.44
2022-08-30T15:31:38.693Z,45.93
2022-08-30T15:34:12.874Z,46.17
2022-08-30T15:36:46.225Z,45.95
2022-08-30T15:39:19.136Z,46.37
2022-08-30T15:41:57.069Z,46.23
2022-08-30T15:44:29.857Z,46.11
2022-08-30T15:47:02.269Z,46.41
2022-08-30T15:49:34.403Z,46.08
2022-08-30T15:52:08.085Z,46.70
2022-08-30T15:54:40.456Z,46.49
2022-08-30T15:57:12.449Z,46.29
2022-08-30T15:59:44.255Z,46.25
2022-08-30T16:02:16.790Z,46.84
2022-08-30T16:04:48.940Z,47.16
2022-08-30T16:07:24.682Z,47.57
2022-08-30T16:09:57.878Z,47.84
2022-08-30T16:12:30.159Z,47.85
2022-08-30T16:15:02.762Z,48.30
2022-08-30T16:17:35.895Z,48.62
2022-08-30T16:20:20.876Z,49.10
2022-08-30T16:22:52.857Z,49.01
2022-08-30T16:25:25.112Z,49.48
2022-08-30T16:28:12.396Z,49.89
2022-08-30T16:30:45.872Z,50.52
2022-08-30T16:33:18.395Z,50.74
2022-08-30T16:35:53.155Z,51.04
2022-08-30T16:38:26.902Z,51.14
2022-08-30T16:41:01.225Z,51.13
2022-08-30T16:43:35.079Z,51.75
2022-08-30T16:46:09.059Z,51.81
2022-08-30T16:48:44.867Z,52.01
2022-08-30T16:51:21.065Z,52.25
2022-08-30T16:53:54.925Z,52.32
2022-08-30T16:56:29.552Z,52.59
2022-08-30T17:01:55.780Z,52.87
2022-08-30T17:04:27.670Z,53.01
2022-08-30T17:06:59.509Z,53.13
2022-08-30T17:09:31.483Z,53.39
2022-08-30T17:12:04.308Z,53.54
2022-08-30T17:14:36.332Z,53.66
2022-08-30T17:17:08.976Z,53.69
2022-08-30T17:19:43.087Z,53.81
2022-08-30T17:22:16.029Z,54.37
2022-08-30T17:24:47.891Z,54.64
2022-08-30T17:27:21.079Z,54.44
2022-08-30T17:29:53.258Z,54.40
2022-08-30T17:32:25.320Z,54.64
2022-08-30T17:34:57.263Z,55.22
2022-08-30T17:37:29.330Z,55.31
2022-08-30T17:40:02.192Z,55.49
2022-08-30T17:42:37.522Z,55.06
2022-08-30T17:45:13.951Z,55.38
2022-08-30T17:47:45.982Z,55.47
2022-08-30T17:50:19.450Z,55.54
2022-08-30T17:52:51.567Z,55.55
2022-08-30T17:55:23.571Z,55.55
2022-08-30T17:57:56.373Z,55.69
2022-08-30T18:00:32.723Z,55.62
2022-08-30T18:03:04.986Z,55.94
2022-08-30T18:08:30.169Z,56.16
2022-08-30T18:11:02.047Z,56.15
2022-08-30T18:13:34.271Z,56.34
2022-08-30T18:16:07.415Z,56.33
2022-08-30T18:18:39.687Z,56.39
2022-08-30T18:21:17.391Z,56.47
2022-08-30T18:23:50.252Z,56.69
2022-08-30T18:26:24.100Z,56.76
2022-08-30T18:28:56.681Z,56.57
2022-08-30T18:31:28.837Z,56.63
2022-08-30T18:34:01.666Z,57.08
2022-08-30T18:36:34.198Z,57.02
2022-08-30T18:39:06.390Z,56.83
2022-08-30T18:41:43.126Z,57.10
2022-08-30T18:44:27.660Z,56.89
2022-08-30T18:47:03.632Z,56.98
2022-08-30T18:49:37.419Z,56.96
2022-08-30T18:52:10.990Z,56.95
2022-08-30T18:54:52.741Z,57.00
2022-08-30T18:57:25.170Z,56.99
2022-08-30T18:59:57.152Z,57.16
2022-08-30T19:02:29.090Z,57.22
2022-08-30T19:05:01.225Z,57.51
2022-08-30T19:07:34.392Z,57.53
2022-08-30T19:10:20.936Z,57.33
2022-08-30T19:12:53.384Z,57.42
2022-08-30T19:15:25.667Z,57.66
2022-08-30T19:17:58.405Z,57.76
2022-08-30T19:20:31.655Z,57.77
2022-08-30T19:23:09.898Z,57.90
2022-08-30T19:25:43.994Z,58.06
2022-08-30T19:28:16.407Z,58.21
2022-08-30T19:30:49.159Z,58.09
2022-08-30T19:33:21.457Z,58.18
2022-08-30T19:35:53.748Z,58.47
2022-08-30T19:38:25.890Z,58.30
2022-08-30T19:41:03.851Z,58.20
2022-08-30T19:43:35.687Z,58.30
2022-08-30T19:46:07.962Z,58.57
2022-08-30T19:48:43.160Z,58.81
2022-08-30T19:51:17.155Z,58.87
2022-08-30T19:53:48.953Z,58.64
2022-08-30T19:56:20.807Z,58.67
2022-08-30T19:58:54.625Z,58.83
2022-08-30T20:01:33.597Z,59.17
2022-08-30T20:04:06.482Z,59.12
2022-08-30T20:06:38.607Z,59.08
2022-08-30T20:09:10.704Z,59.30
2022-08-30T20:11:44.450Z,58.99
2022-08-30T20:14:17.695Z,59.24
2022-08-30T20:16:51.474Z,59.37
2022-08-30T20:19:27.612Z,59.40
2022-08-30T20:22:07.707Z,59.29
2022-08-30T20:24:23.475Z,52.66
2022-08-30T20:24:26.867Z,55.89
2022-08-30T20:24:43.770Z,59.50
2022-08-30T20:27:16.056Z,59.60
2022-08-30T20:29:47.905Z,59.65
2022-08-30T20:32:20.471Z,59.96
2022-08-30T20:34:53.323Z,59.76
2022-08-30T20:37:25.206Z,59.61
2022-08-30T20:40:00.365Z,59.58
2022-08-30T20:42:33.552Z,59.56
2022-08-30T20:45:07.186Z,59.63
2022-08-30T20:47:40.335Z,59.34
2022-08-30T20:50:18.210Z,59.18
2022-08-30T20:52:50.240Z,58.77
2022-08-30T20:55:22.364Z,58.83
2022-08-30T20:57:55.085Z,58.56
2022-08-30T21:00:27.574Z,58.57
2022-08-30T21:03:00.493Z,58.81
2022-08-30T21:05:32.767Z,58.88
2022-08-30T21:08:10.013Z,59.19
2022-08-30T21:10:42.395Z,59.18
2022-08-30T21:13:14.306Z,59.22
2022-08-30T21:15:46.430Z,59.67
2022-08-30T21:18:18.448Z,59.69
2022-08-30T21:20:50.428Z,59.65
2022-08-30T21:23:22.287Z,60.03
2022-08-30T21:25:54.152Z,59.72
2022-08-30T21:28:26.056Z,59.76
2022-08-30T21:31:11.171Z,59.88
2022-08-30T21:33:43.629Z,59.69
2022-08-30T21:36:33.430Z,59.80
2022-08-30T21:39:06.260Z,59.94
2022-08-30T21:41:39.031Z,59.93
2022-08-30T21:44:13.148Z,59.89
2022-08-30T21:46:46.127Z,60.04
2022-08-30T21:49:20.766Z,60.24
2022-08-30T21:51:53.753Z,60.18
2022-08-30T21:54:31.223Z,60.47
2022-08-30T21:57:07.131Z,61.01
2022-08-30T21:59:39.135Z,60.92
2022-08-30T22:02:12.272Z,60.90
2022-08-30T22:04:44.498Z,60.96
2022-08-30T22:07:16.528Z,61.38
2022-08-30T22:09:48.407Z,61.21
2022-08-30T22:12:20.189Z,61.46
2022-08-30T22:14:53.216Z,61.44
2022-08-30T22:17:25.601Z,61.40
2022-08-30T22:19:57.449Z,61.52
2022-08-30T22:22:29.463Z,61.58
2022-08-30T22:25:02.158Z,61.77
2022-08-30T22:27:34.736Z,62.29
2022-08-30T22:30:12.566Z,61.80
2022-08-30T22:32:44.400Z,62.01
2022-08-30T22:35:17.357Z,62.09
2022-08-30T22:37:53.416Z,62.09
2022-08-30T22:40:28.276Z,62.67
2022-08-30T22:43:05.275Z,63.48
2022-08-30T22:45:42.784Z,63.27
2022-08-30T22:48:15.057Z,63.60
2022-08-30T22:50:49.901Z,63.71
2022-08-30T22:53:21.901Z,63.48
2022-08-30T22:55:53.744Z,63.97
2022-08-30T22:58:26.119Z,63.89
2022-08-30T23:01:01.227Z,64.06
2022-08-30T23:03:35.265Z,64.20
2022-08-30T23:06:07.525Z,64.49
2022-08-30T23:08:39.738Z,64.17
2022-08-30T23:11:13.001Z,64.90
2022-08-30T23:13:45.226Z,65.72
2022-08-30T23:16:18.567Z,65.30
2022-08-30T23:18:51.026Z,66.07
2022-08-30T23:21:27.050Z,66.42
2022-08-30T23:24:17.595Z,66.30
2022-08-30T23:27:07.402Z,67.19
2022-08-30T23:29:57.133Z,66.76
2022-08-30T23:32:46.607Z,67.19
2022-08-30T23:35:35.969Z,67.46
2022-08-30T23:38:26.182Z,67.00
2022-08-30T23:41:15.970Z,66.95
2022-08-30T23:44:06.140Z,66.87
2022-08-30T23:46:57.132Z,66.37
2022-08-30T23:52:34.034Z,66.35
2022-08-30T23:55:21.875Z,66.40
2022-08-30T23:58:11.467Z,66.32
